Pagrindinis puslapis
METAR-TAF:

METAR-TAF

Oro uostai :

Point Lay, Aliaska, Jungtinės Amerikos Valstijos

platuma: 69-43N, ilguma: 163-00W, Aukštis: 8 m

Dabartinis oras

Ataskaita buvo paskelbta 38 minutes, ne 21:56 UTC
Vėjas 13 kt iš Šiaurės Rytų
Temperatūra 3°C
Drėgmė 75%
Slėgis 1014 hPa
Matomumas: 16.1 km
Giedras dangus

METAR: PPIZ 302156Z AUTO 05013KT 10SM CLR 03/M01 A2994 RMK AO2 SLP142 T00331006

Laikas: 14:34 (22:34 UTC)


TAF: trūkstamas

Orai ataskaitas ir orų prognozės (METAR, TAF).

turimą stotys yra geltonos ir raudonos taškus žemėlapyje.

Perkelti pele per norėdami pamatyti stoties vardą.

Tada spustelėkite, norėdami matyti oro stebėjimo ir prognozės.

Norėdami pakeisti žemėlapį: spustelėkite ant žalios mygtukų su juodo kryžiaus žemyn,; žalią mygtuką su brūkšneliu, jei norite nutolinti; arba žalių rodyklių gretimoms žemėlapius.


METAR-TAF: